createdAt,value
2022-08-28T00:00:45.332Z,4.00
2022-08-28T00:03:15.924Z,3.57
2022-08-28T00:05:45.956Z,4.60
2022-08-28T00:08:17.422Z,4.27
2022-08-28T00:10:46.741Z,3.63
2022-08-28T00:13:21.361Z,3.60
2022-08-28T00:16:01.149Z,3.60
2022-08-28T00:18:32.101Z,4.17
2022-08-28T00:21:01.249Z,4.63
2022-08-28T00:23:38.789Z,3.67
2022-08-28T00:26:32.319Z,3.73
2022-08-28T00:29:00.096Z,3.83
2022-08-28T00:31:27.910Z,5.67
2022-08-28T00:33:55.427Z,4.00
2022-08-28T00:36:24.065Z,4.30
2022-08-28T00:38:51.678Z,3.90
2022-08-28T00:41:24.988Z,3.90
2022-08-28T00:44:29.396Z,4.57
2022-08-28T00:47:00.312Z,4.37
2022-08-28T00:49:37.788Z,4.30
2022-08-28T00:52:12.536Z,5.20
2022-08-28T00:54:59.650Z,4.30
2022-08-28T00:57:48.542Z,3.97
2022-08-28T01:00:38.641Z,4.83
2022-08-28T01:03:08.896Z,4.23
2022-08-28T01:05:37.872Z,5.43
2022-08-28T01:08:06.342Z,3.70
2022-08-28T01:10:35.158Z,4.43
2022-08-28T01:13:04.136Z,4.60
2022-08-28T01:15:37.785Z,3.70
2022-08-28T01:18:15.620Z,3.97
2022-08-28T01:21:20.197Z,4.30
2022-08-28T01:24:05.002Z,3.73
2022-08-28T01:26:33.279Z,4.57
2022-08-28T01:29:03.386Z,4.20
2022-08-28T01:31:32.864Z,4.90
2022-08-28T01:34:02.250Z,4.47
2022-08-28T01:36:33.685Z,4.70
2022-08-28T01:39:18.472Z,4.30
2022-08-28T01:41:52.246Z,5.10
2022-08-28T01:44:27.868Z,4.27
2022-08-28T01:46:59.584Z,3.93
2022-08-28T01:49:29.494Z,4.60
2022-08-28T01:51:58.672Z,3.90
2022-08-28T01:54:28.954Z,5.90
2022-08-28T01:56:56.604Z,4.50
2022-08-28T01:59:24.408Z,4.13
2022-08-28T02:01:52.586Z,5.10
2022-08-28T02:04:21.496Z,4.43
2022-08-28T02:06:59.528Z,3.90
2022-08-28T02:09:27.061Z,3.63
2022-08-28T02:11:55.078Z,4.77
2022-08-28T02:14:22.750Z,4.57
2022-08-28T02:16:51.236Z,4.13
2022-08-28T02:19:18.865Z,4.20
2022-08-28T02:21:46.582Z,4.60
2022-08-28T02:24:14.451Z,5.20
2022-08-28T02:26:41.965Z,5.53
2022-08-28T02:29:09.793Z,4.60
2022-08-28T02:31:38.317Z,5.30
2022-08-28T02:34:07.376Z,4.87
2022-08-28T02:36:35.009Z,4.10
2022-08-28T02:39:02.584Z,4.07
2022-08-28T02:41:30.106Z,5.37
2022-08-28T02:43:57.545Z,4.43
2022-08-28T02:46:26.529Z,4.40
2022-08-28T02:48:54.288Z,4.60
2022-08-28T02:51:22.544Z,4.67
2022-08-28T02:53:50.584Z,4.43
2022-08-28T02:56:18.995Z,4.53
2022-08-28T02:58:46.534Z,5.40
2022-08-28T03:01:15.716Z,6.10
2022-08-28T03:03:43.827Z,5.53
2022-08-28T03:06:13.596Z,5.40
2022-08-28T03:08:45.422Z,4.83
2022-08-28T03:11:13.528Z,6.10
2022-08-28T03:13:42.505Z,5.00
2022-08-28T03:16:10.508Z,5.10
2022-08-28T03:18:38.377Z,4.70
2022-08-28T03:21:06.772Z,5.30
2022-08-28T03:23:35.095Z,5.90
2022-08-28T03:26:20.272Z,5.83
2022-08-28T03:28:53.930Z,5.10
2022-08-28T03:31:28.337Z,4.87
2022-08-28T03:33:57.372Z,5.80
2022-08-28T03:36:29.690Z,4.63
2022-08-28T03:39:03.278Z,4.47
2022-08-28T03:41:37.139Z,5.70
2022-08-28T03:44:05.171Z,5.00
2022-08-28T03:46:34.382Z,5.10
2022-08-28T03:49:06.090Z,4.97
2022-08-28T03:51:35.798Z,4.80
2022-08-28T03:54:05.722Z,4.40
2022-08-28T03:56:33.684Z,5.97
2022-08-28T03:59:05.390Z,5.07
2022-08-28T04:01:33.821Z,5.77
2022-08-28T04:04:02.180Z,4.83
2022-08-28T04:06:30.191Z,5.57
2022-08-28T04:08:59.941Z,5.23
2022-08-28T04:11:29.092Z,5.60
2022-08-28T04:13:58.028Z,6.13
2022-08-28T04:16:25.716Z,6.37
2022-08-28T04:18:53.219Z,6.73
2022-08-28T04:21:26.304Z,5.37
2022-08-28T04:23:56.016Z,4.70
2022-08-28T04:26:28.053Z,5.07
2022-08-28T04:28:56.797Z,5.93
2022-08-28T04:31:31.613Z,6.40
2022-08-28T04:34:08.742Z,5.47
2022-08-28T04:36:38.153Z,5.87
2022-08-28T04:39:08.850Z,5.83
2022-08-28T04:41:38.813Z,5.30
2022-08-28T04:44:07.745Z,5.93
2022-08-28T04:46:36.590Z,5.53
2022-08-28T04:49:05.995Z,6.30
2022-08-28T04:51:35.426Z,5.30
2022-08-28T04:54:04.759Z,5.27
2022-08-28T04:56:32.506Z,6.00
2022-08-28T04:59:02.323Z,6.20
2022-08-28T05:01:30.138Z,5.03
2022-08-28T05:04:04.015Z,5.77
2022-08-28T05:06:34.063Z,6.03
2022-08-28T05:09:04.424Z,5.00
2022-08-28T05:11:34.566Z,5.17
2022-08-28T05:14:13.941Z,4.80
2022-08-28T05:16:57.740Z,5.77
2022-08-28T05:19:28.336Z,7.07
2022-08-28T05:21:56.092Z,6.20
2022-08-28T05:24:24.063Z,5.77
2022-08-28T05:26:52.003Z,4.63
2022-08-28T05:29:19.634Z,6.63
2022-08-28T05:31:47.850Z,6.57
2022-08-28T05:34:16.875Z,5.73
2022-08-28T05:36:44.359Z,4.90
2022-08-28T05:39:14.574Z,5.20
2022-08-28T05:41:46.196Z,5.00
2022-08-28T05:44:18.162Z,5.43
2022-08-28T05:46:48.328Z,6.30
2022-08-28T05:49:19.598Z,4.40
2022-08-28T05:51:49.472Z,5.57
2022-08-28T05:54:18.455Z,4.90
2022-08-28T05:56:47.781Z,5.10
2022-08-28T05:59:17.076Z,5.20
2022-08-28T06:01:49.774Z,5.30
2022-08-28T06:04:28.025Z,5.13
2022-08-28T06:06:56.206Z,4.63
2022-08-28T06:09:29.974Z,4.23
2022-08-28T06:12:02.823Z,4.80
2022-08-28T06:14:32.015Z,4.37
2022-08-28T06:17:01.054Z,4.30
2022-08-28T06:19:37.251Z,4.03
2022-08-28T06:22:09.616Z,4.67
2022-08-28T06:24:37.759Z,5.00
2022-08-28T06:27:05.945Z,4.73
2022-08-28T06:29:33.603Z,3.73
2022-08-28T06:32:06.858Z,4.63
2022-08-28T06:34:34.621Z,4.50
2022-08-28T06:37:02.263Z,4.87
2022-08-28T06:39:29.991Z,4.60
2022-08-28T06:41:57.593Z,5.13
2022-08-28T06:44:25.239Z,4.90
2022-08-28T06:46:55.705Z,5.00
2022-08-28T06:49:23.566Z,7.00
2022-08-28T06:51:51.630Z,4.73
2022-08-28T06:54:22.804Z,5.53
2022-08-28T06:56:53.062Z,4.60
2022-08-28T06:59:21.072Z,4.60
2022-08-28T07:01:48.843Z,4.63
2022-08-28T07:04:16.569Z,4.80
2022-08-28T07:06:47.035Z,5.13
2022-08-28T07:09:15.578Z,5.23
2022-08-28T07:11:47.095Z,4.93
2022-08-28T07:14:14.861Z,4.90
2022-08-28T07:16:42.587Z,5.00
2022-08-28T07:19:13.720Z,4.50
2022-08-28T07:21:46.106Z,4.30
2022-08-28T07:24:17.326Z,4.20
2022-08-28T07:26:47.908Z,4.30
2022-08-28T07:29:17.448Z,4.50
2022-08-28T07:31:52.759Z,4.20
2022-08-28T07:34:27.035Z,4.27
2022-08-28T07:36:56.420Z,4.13
2022-08-28T07:39:24.426Z,3.77
2022-08-28T07:41:51.925Z,3.53
2022-08-28T07:44:38.033Z,3.83
2022-08-28T07:47:08.865Z,3.80
2022-08-28T07:49:37.032Z,3.90
2022-08-28T07:52:08.828Z,3.60
2022-08-28T07:54:40.600Z,3.60
2022-08-28T07:57:10.373Z,4.03
2022-08-28T07:59:42.286Z,2.80
2022-08-28T08:02:11.428Z,2.50
2022-08-28T08:04:40.330Z,3.33
2022-08-28T08:07:08.508Z,2.60
2022-08-28T08:09:43.537Z,2.27
2022-08-28T08:12:14.662Z,2.87
2022-08-28T08:14:44.134Z,2.43
2022-08-28T08:17:12.246Z,2.43
2022-08-28T08:19:40.393Z,2.40
2022-08-28T08:22:08.344Z,2.37
2022-08-28T08:24:36.099Z,2.77
2022-08-28T08:27:04.154Z,3.50
2022-08-28T08:29:37.800Z,2.70
2022-08-28T08:32:12.455Z,3.20
2022-08-28T08:34:46.596Z,2.40
2022-08-28T08:37:14.648Z,2.40
2022-08-28T08:39:43.978Z,3.10
2022-08-28T08:42:32.541Z,2.27
2022-08-28T08:45:05.512Z,2.40
2022-08-28T08:47:40.363Z,2.70
2022-08-28T08:50:24.807Z,3.07
2022-08-28T08:53:35.735Z,2.43
2022-08-28T08:56:06.775Z,2.50
2022-08-28T08:58:53.907Z,2.40
2022-08-28T09:01:43.165Z,2.83
2022-08-28T09:05:06.911Z,2.60
2022-08-28T09:08:04.648Z,2.90
2022-08-28T09:11:19.145Z,2.70
2022-08-28T09:14:20.500Z,2.50
2022-08-28T09:16:48.745Z,2.50
2022-08-28T09:19:21.979Z,3.00
2022-08-28T09:21:52.451Z,2.47
2022-08-28T09:24:40.111Z,2.30
2022-08-28T09:27:36.854Z,2.90
2022-08-28T09:30:11.496Z,2.60
2022-08-28T09:33:01.065Z,2.50
2022-08-28T09:35:37.677Z,3.10
2022-08-28T09:38:27.956Z,2.30
2022-08-28T09:41:31.231Z,2.10
2022-08-28T09:43:58.957Z,2.30
2022-08-28T09:46:32.856Z,2.93
2022-08-28T09:49:15.064Z,2.63
2022-08-28T09:51:43.388Z,2.20
2022-08-28T09:54:33.047Z,2.30
2022-08-28T09:57:03.696Z,3.33
2022-08-28T09:59:33.900Z,2.50
2022-08-28T10:02:43.674Z,2.40
2022-08-28T10:05:24.699Z,2.13
2022-08-28T10:08:17.517Z,2.20
2022-08-28T10:11:07.543Z,2.20
2022-08-28T10:14:31.747Z,2.13
2022-08-28T10:17:27.030Z,2.73
2022-08-28T10:20:22.465Z,2.10
2022-08-28T10:23:17.542Z,2.13
2022-08-28T10:26:54.513Z,2.17
2022-08-28T10:30:03.038Z,2.40
2022-08-28T10:33:22.465Z,2.50
2022-08-28T10:36:33.387Z,2.27
2022-08-28T10:40:04.726Z,2.50
2022-08-28T10:43:33.857Z,2.33
2022-08-28T10:46:27.336Z,2.57
2022-08-28T10:49:28.903Z,2.47
2022-08-28T10:52:23.889Z,2.60
2022-08-28T10:55:07.285Z,2.57
2022-08-28T10:57:58.028Z,2.07
2022-08-28T11:00:28.893Z,2.40
2022-08-28T11:03:32.855Z,1.60
2022-08-28T11:06:22.637Z,2.10
2022-08-28T11:09:20.972Z,2.23
2022-08-28T11:11:52.238Z,2.13
2022-08-28T11:14:47.068Z,2.10
2022-08-28T11:17:25.830Z,2.13
2022-08-28T11:20:25.958Z,2.20
2022-08-28T11:23:22.468Z,1.60
2022-08-28T11:26:07.434Z,2.10
2022-08-28T11:28:47.517Z,2.43
2022-08-28T11:31:19.260Z,2.47
2022-08-28T11:34:00.204Z,1.60
2022-08-28T11:36:29.883Z,1.80
2022-08-28T11:38:57.794Z,1.67
2022-08-28T11:41:36.984Z,1.90
2022-08-28T11:44:14.070Z,1.77
2022-08-28T11:46:56.849Z,2.10
2022-08-28T11:49:30.304Z,1.80
2022-08-28T11:53:10.997Z,2.10
2022-08-28T11:56:36.047Z,2.03
2022-08-28T12:00:10.843Z,1.70
2022-08-28T12:02:41.274Z,1.80
2022-08-28T12:05:33.454Z,2.00
2022-08-28T12:08:05.152Z,1.73
2022-08-28T12:10:32.670Z,2.17
2022-08-28T12:13:44.845Z,1.87
2022-08-28T12:16:12.904Z,2.20
2022-08-28T12:18:49.008Z,1.60
2022-08-28T12:21:29.504Z,1.60
2022-08-28T12:24:24.481Z,1.77
2022-08-28T12:26:57.032Z,2.00
2022-08-28T12:30:00.369Z,1.40
2022-08-28T12:33:15.349Z,1.93
2022-08-28T12:35:44.020Z,1.77
2022-08-28T12:38:23.015Z,2.03
2022-08-28T12:40:53.476Z,2.10
2022-08-28T12:43:46.413Z,1.90
2022-08-28T12:46:37.639Z,2.13
2022-08-28T12:49:36.252Z,1.70
2022-08-28T12:52:32.989Z,1.93
2022-08-28T12:55:01.045Z,1.80
2022-08-28T12:57:28.716Z,3.53
2022-08-28T13:00:11.202Z,1.53
2022-08-28T13:02:41.459Z,1.60
2022-08-28T13:05:41.977Z,2.03
2022-08-28T13:08:13.542Z,1.80
2022-08-28T13:10:52.557Z,1.93
2022-08-28T13:13:47.454Z,1.50
2022-08-28T13:16:46.640Z,2.10
2022-08-28T13:19:32.600Z,2.10
2022-08-28T13:22:39.554Z,2.20
2022-08-28T13:25:39.263Z,1.67
2022-08-28T13:28:19.666Z,1.70
2022-08-28T13:31:00.385Z,1.50
2022-08-28T13:33:28.350Z,2.00
2022-08-28T13:35:55.905Z,1.83
2022-08-28T13:38:26.440Z,1.90
2022-08-28T13:41:04.574Z,1.60
2022-08-28T13:43:47.477Z,1.90
2022-08-28T13:46:15.145Z,1.70
2022-08-28T13:48:42.869Z,2.00
2022-08-28T13:51:20.617Z,1.43
2022-08-28T13:53:50.666Z,1.90
2022-08-28T13:56:21.848Z,1.77
2022-08-28T13:58:58.106Z,1.43
2022-08-28T14:01:50.394Z,1.10
2022-08-28T14:04:18.580Z,1.50
2022-08-28T14:06:46.066Z,1.70
2022-08-28T14:09:17.750Z,1.50
2022-08-28T14:11:48.378Z,2.10
2022-08-28T14:14:17.046Z,1.80
2022-08-28T14:16:45.824Z,1.50
2022-08-28T14:19:13.605Z,1.70
2022-08-28T14:21:41.998Z,1.20
2022-08-28T14:24:09.990Z,1.50
2022-08-28T14:26:39.001Z,1.70
2022-08-28T14:29:11.794Z,2.30
2022-08-28T14:31:42.497Z,1.50
2022-08-28T14:34:17.686Z,1.60
2022-08-28T14:36:46.420Z,1.47
2022-08-28T14:39:14.591Z,1.47
2022-08-28T14:41:49.410Z,1.70
2022-08-28T14:44:17.424Z,1.33
2022-08-28T14:46:58.805Z,2.17
2022-08-28T14:49:36.999Z,1.43
2022-08-28T14:52:21.432Z,1.40
2022-08-28T14:54:55.804Z,1.63
2022-08-28T14:57:34.082Z,1.60
2022-08-28T15:00:16.590Z,1.50
2022-08-28T15:02:53.289Z,1.63
2022-08-28T15:05:30.388Z,1.90
2022-08-28T15:08:17.604Z,1.70
2022-08-28T15:10:56.068Z,1.30
2022-08-28T15:13:25.594Z,1.70
2022-08-28T15:16:17.377Z,1.87
2022-08-28T15:18:47.956Z,1.57
2022-08-28T15:21:29.732Z,1.70
2022-08-28T15:23:59.624Z,1.70
2022-08-28T15:26:28.609Z,1.67
2022-08-28T15:29:02.484Z,1.87
2022-08-28T15:31:35.230Z,1.60
2022-08-28T15:34:27.885Z,1.70
2022-08-28T15:36:58.483Z,2.13
2022-08-28T15:39:47.638Z,2.10
2022-08-28T15:42:16.136Z,2.47
2022-08-28T15:44:44.477Z,2.90
2022-08-28T15:47:14.172Z,2.10
2022-08-28T15:49:46.754Z,1.73
2022-08-28T15:52:16.473Z,1.53
2022-08-28T15:54:43.968Z,2.40
2022-08-28T15:57:12.147Z,1.97
2022-08-28T15:59:49.409Z,1.43
2022-08-28T16:02:25.270Z,1.60
2022-08-28T16:04:54.330Z,1.70
2022-08-28T16:07:24.895Z,1.47
2022-08-28T16:09:53.532Z,1.50
2022-08-28T16:12:21.172Z,1.90
2022-08-28T16:14:50.415Z,1.67
2022-08-28T16:17:18.803Z,1.30
2022-08-28T16:19:47.767Z,1.97
2022-08-28T16:22:16.488Z,1.90
2022-08-28T16:24:46.349Z,2.00
2022-08-28T16:27:15.766Z,1.40
2022-08-28T16:29:45.954Z,1.77
2022-08-28T16:32:14.061Z,1.50
2022-08-28T16:34:44.890Z,1.70
2022-08-28T16:37:14.279Z,1.30
2022-08-28T16:39:46.231Z,1.87
2022-08-28T16:42:13.962Z,1.73
2022-08-28T16:44:41.438Z,2.17
2022-08-28T16:47:09.113Z,1.90
2022-08-28T16:49:36.748Z,1.67
2022-08-28T16:52:04.822Z,1.77
2022-08-28T16:54:33.262Z,2.20
2022-08-28T16:57:00.838Z,2.30
2022-08-28T16:59:28.334Z,1.60
2022-08-28T17:01:56.023Z,1.73
2022-08-28T17:04:25.344Z,1.77
2022-08-28T17:06:52.844Z,1.97
2022-08-28T17:09:23.197Z,2.10
2022-08-28T17:11:52.258Z,2.03
2022-08-28T17:14:23.774Z,1.93
2022-08-28T17:16:53.154Z,1.80
2022-08-28T17:19:23.288Z,2.27
2022-08-28T17:22:09.899Z,3.53
2022-08-28T17:24:38.134Z,2.17
2022-08-28T17:27:07.014Z,2.23
2022-08-28T17:29:38.857Z,1.93
2022-08-28T17:32:08.026Z,2.50
2022-08-28T17:34:37.588Z,2.13
2022-08-28T17:37:06.165Z,2.27
2022-08-28T17:39:33.724Z,1.50
2022-08-28T17:42:01.210Z,2.00
2022-08-28T17:44:28.797Z,1.97
2022-08-28T17:46:56.695Z,1.93
2022-08-28T17:49:24.324Z,2.00
2022-08-28T17:51:51.758Z,2.07
2022-08-28T17:54:24.442Z,2.67
2022-08-28T17:56:56.859Z,1.83
2022-08-28T17:59:27.681Z,2.30
2022-08-28T18:01:55.682Z,1.80
2022-08-28T18:04:24.725Z,1.73
2022-08-28T18:06:54.878Z,2.03
2022-08-28T18:09:24.371Z,1.97
2022-08-28T18:11:53.144Z,2.43
2022-08-28T18:14:21.799Z,1.90
2022-08-28T18:16:49.688Z,2.07
2022-08-28T18:19:17.631Z,2.13
2022-08-28T18:21:46.253Z,2.00
2022-08-28T18:24:14.343Z,2.40
2022-08-28T18:26:43.909Z,2.30
2022-08-28T18:29:12.525Z,2.07
2022-08-28T18:31:41.871Z,2.33
2022-08-28T18:34:11.067Z,2.07
2022-08-28T18:36:41.632Z,1.90
2022-08-28T18:39:10.903Z,2.00
2022-08-28T18:41:44.806Z,1.80
2022-08-28T18:44:16.128Z,2.47
2022-08-28T18:46:44.993Z,2.10
2022-08-28T18:49:13.566Z,2.60
2022-08-28T18:51:44.563Z,1.73
2022-08-28T18:54:18.057Z,2.00
2022-08-28T18:56:49.683Z,2.27
2022-08-28T18:59:18.805Z,2.20
2022-08-28T19:01:46.653Z,2.07
2022-08-28T19:04:14.271Z,2.87
2022-08-28T19:06:42.280Z,2.10
2022-08-28T19:09:19.345Z,2.40
2022-08-28T19:11:48.625Z,1.70
2022-08-28T19:14:16.272Z,1.90
2022-08-28T19:16:44.712Z,3.00
2022-08-28T19:19:12.720Z,2.60
2022-08-28T19:21:40.380Z,2.07
2022-08-28T19:24:08.428Z,2.13
2022-08-28T19:26:38.708Z,1.80
2022-08-28T19:29:06.282Z,1.80
2022-08-28T19:31:36.905Z,1.40
2022-08-28T19:34:05.046Z,1.80
2022-08-28T19:36:32.583Z,2.33
2022-08-28T19:39:01.024Z,1.53
2022-08-28T19:41:29.760Z,2.00
2022-08-28T19:43:57.255Z,1.50
2022-08-28T19:46:25.189Z,2.00
2022-08-28T19:48:54.839Z,2.50
2022-08-28T19:51:25.026Z,1.50
2022-08-28T19:53:58.339Z,1.97
2022-08-28T19:56:29.971Z,2.50
2022-08-28T19:59:03.593Z,1.40
2022-08-28T20:01:41.550Z,2.70
2022-08-28T20:04:13.523Z,1.60
2022-08-28T20:06:41.071Z,1.73
2022-08-28T20:09:12.682Z,1.37
2022-08-28T20:11:45.049Z,1.83
2022-08-28T20:14:15.253Z,1.83
2022-08-28T20:16:48.485Z,1.80
2022-08-28T20:19:19.299Z,1.50
2022-08-28T20:21:50.122Z,1.70
2022-08-28T20:24:24.258Z,1.80
2022-08-28T20:26:53.997Z,1.77
2022-08-28T20:29:24.227Z,1.80
2022-08-28T20:31:52.953Z,1.63
2022-08-28T20:34:21.681Z,2.10
2022-08-28T20:36:50.712Z,2.03
2022-08-28T20:39:21.623Z,1.93
2022-08-28T20:41:49.841Z,1.57
2022-08-28T20:44:21.113Z,2.00
2022-08-28T20:46:51.384Z,1.70
2022-08-28T20:49:22.351Z,1.57
2022-08-28T20:51:53.618Z,1.80
2022-08-28T20:54:30.329Z,1.90
2022-08-28T20:57:10.981Z,2.10
2022-08-28T20:59:43.938Z,1.80
2022-08-28T21:02:29.202Z,2.10
2022-08-28T21:04:58.208Z,2.10
2022-08-28T21:07:27.164Z,1.97
2022-08-28T21:10:06.137Z,2.10
2022-08-28T21:12:40.042Z,1.93
2022-08-28T21:15:12.846Z,1.57
2022-08-28T21:17:42.056Z,2.50
2022-08-28T21:20:16.241Z,1.90
2022-08-28T21:22:44.700Z,2.00
2022-08-28T21:25:13.596Z,2.67
2022-08-28T21:27:43.902Z,2.07
2022-08-28T21:30:17.950Z,1.90
2022-08-28T21:32:47.482Z,2.13
2022-08-28T21:35:18.400Z,1.87
2022-08-28T21:37:45.950Z,1.47
2022-08-28T21:40:15.847Z,1.80
2022-08-28T21:42:44.202Z,1.77
2022-08-28T21:45:13.611Z,1.83
2022-08-28T21:47:43.348Z,1.50
2022-08-28T21:50:12.367Z,1.70
2022-08-28T21:52:40.876Z,1.87
2022-08-28T21:55:16.294Z,1.63
2022-08-28T21:57:44.800Z,1.70
2022-08-28T22:00:23.638Z,2.33
2022-08-28T22:02:51.313Z,1.70
2022-08-28T22:05:20.003Z,1.53
2022-08-28T22:07:48.283Z,2.03
2022-08-28T22:10:15.873Z,1.60
2022-08-28T22:12:43.326Z,1.70
2022-08-28T22:15:11.329Z,2.03
2022-08-28T22:17:38.780Z,2.10
2022-08-28T22:20:07.270Z,1.87
2022-08-28T22:22:53.115Z,1.90
2022-08-28T22:25:20.936Z,1.93
2022-08-28T22:27:49.399Z,1.70
2022-08-28T22:30:16.995Z,1.80
2022-08-28T22:32:45.479Z,1.80
2022-08-28T22:35:13.097Z,2.13
2022-08-28T22:37:40.718Z,2.00
2022-08-28T22:40:13.223Z,2.10
2022-08-28T22:42:42.673Z,1.87
2022-08-28T22:45:11.100Z,2.27
2022-08-28T22:47:39.671Z,1.93
2022-08-28T22:50:09.336Z,2.10
2022-08-28T22:52:37.347Z,1.70
2022-08-28T22:55:12.412Z,2.07
2022-08-28T22:57:40.531Z,2.33
2022-08-28T23:00:20.460Z,1.90
2022-08-28T23:02:48.286Z,1.60
2022-08-28T23:05:16.377Z,2.10
2022-08-28T23:07:44.202Z,1.57
2022-08-28T23:10:14.150Z,3.47
2022-08-28T23:12:42.273Z,1.80
2022-08-28T23:15:18.077Z,1.90
2022-08-28T23:17:46.425Z,2.67
2022-08-28T23:20:22.683Z,2.20
2022-08-28T23:22:56.409Z,2.17
2022-08-28T23:25:26.065Z,2.20
2022-08-28T23:27:55.934Z,1.80
2022-08-28T23:30:25.321Z,1.83
2022-08-28T23:32:54.067Z,2.30
2022-08-28T23:35:22.862Z,2.30
2022-08-28T23:37:51.993Z,1.70
2022-08-28T23:40:25.201Z,2.20
2022-08-28T23:42:56.729Z,2.57
2022-08-28T23:45:24.733Z,2.10
2022-08-28T23:47:52.293Z,2.27
2022-08-28T23:50:23.929Z,2.27
2022-08-28T23:52:52.821Z,2.27
2022-08-28T23:55:21.405Z,2.33
2022-08-28T23:57:52.130Z,2.27
